createdAt,value
2023-04-14T00:01:37.190Z,3.75
2023-04-14T00:06:39.289Z,2.45
2023-04-14T00:11:41.665Z,2.80
2023-04-14T00:16:46.260Z,2.47
2023-04-14T00:21:48.509Z,1.88
2023-04-14T00:26:50.690Z,2.08
2023-04-14T00:31:53.144Z,2.70
2023-04-14T00:36:55.210Z,2.65
2023-04-14T00:41:57.394Z,1.95
2023-04-14T00:47:01.815Z,2.05
2023-04-14T00:52:04.813Z,1.48
2023-04-14T00:57:08.086Z,1.45
2023-04-14T01:02:10.834Z,2.08
2023-04-14T01:07:13.105Z,2.15
2023-04-14T01:12:27.163Z,3.13
2023-04-14T01:17:32.487Z,1.73
2023-04-14T01:22:42.981Z,1.38
2023-04-14T01:28:03.182Z,1.30
2023-04-14T01:33:08.158Z,1.45
2023-04-14T01:38:19.274Z,1.90
2023-04-14T01:43:27.223Z,1.42
2023-04-14T01:48:30.776Z,0.80
2023-04-14T01:53:36.169Z,0.95
2023-04-14T01:58:39.682Z,1.13
2023-04-14T02:03:43.440Z,1.02
2023-04-14T02:08:46.747Z,1.23
2023-04-14T02:13:49.578Z,0.55
2023-04-14T02:18:51.875Z,0.60
2023-04-14T02:23:54.005Z,0.70
2023-04-14T02:29:07.660Z,1.73
2023-04-14T02:34:15.481Z,0.40
2023-04-14T02:39:23.478Z,0.47
2023-04-14T02:44:29.900Z,0.40
2023-04-14T02:49:42.123Z,0.20
2023-04-14T02:54:46.033Z,0.20
2023-04-14T02:59:49.943Z,0.15
2023-04-14T03:04:53.879Z,0.10
2023-04-14T03:10:06.239Z,0.10
2023-04-14T03:15:10.006Z,0.00
2023-04-14T03:20:14.276Z,0.00
2023-04-14T03:25:16.698Z,0.10
2023-04-14T03:30:25.925Z,0.75
2023-04-14T03:35:29.248Z,0.00
2023-04-14T03:40:33.305Z,0.00
2023-04-14T03:45:39.171Z,0.20
2023-04-14T03:50:45.761Z,0.10
2023-04-14T03:55:51.626Z,0.00
2023-04-14T04:00:55.422Z,0.00
2023-04-14T04:05:58.251Z,0.00
2023-04-14T04:11:05.768Z,0.00
2023-04-14T04:16:10.102Z,0.03
2023-04-14T04:21:14.618Z,0.03
2023-04-14T04:26:18.492Z,0.15
2023-04-14T04:31:24.002Z,0.30
2023-04-14T04:36:31.910Z,0.20
2023-04-14T04:41:34.419Z,0.22
2023-04-14T04:46:50.017Z,0.43
2023-04-14T04:51:53.130Z,1.70
2023-04-14T04:56:57.703Z,1.50
2023-04-14T05:01:59.930Z,2.40
2023-04-14T05:07:03.612Z,2.10
2023-04-14T05:12:05.933Z,2.15
2023-04-14T05:17:08.004Z,4.05
2023-04-14T05:22:10.421Z,5.95
2023-04-14T05:27:14.596Z,6.63
2023-04-14T05:32:17.108Z,8.15
2023-04-14T05:37:19.640Z,9.32
2023-04-14T05:42:21.885Z,9.07
2023-04-14T05:47:23.976Z,7.35
2023-04-14T05:52:26.457Z,7.50
2023-04-14T05:57:28.641Z,6.43
2023-04-14T06:02:30.912Z,6.97
2023-04-14T06:07:33.929Z,8.10
2023-04-14T06:12:37.688Z,6.25
2023-04-14T06:17:40.186Z,6.90
2023-04-14T06:22:43.355Z,7.65
2023-04-14T06:27:45.553Z,6.82
2023-04-14T06:32:48.721Z,4.00
2023-04-14T06:37:51.700Z,6.80
2023-04-14T06:42:53.856Z,4.20
2023-04-14T06:47:56.242Z,3.08
2023-04-14T06:52:58.417Z,1.92
2023-04-14T06:58:00.820Z,2.53
2023-04-14T07:03:03.071Z,2.78
2023-04-14T07:08:05.218Z,2.63
2023-04-14T07:13:07.391Z,2.42
2023-04-14T07:18:09.565Z,3.15
2023-04-14T07:23:11.774Z,3.50
2023-04-14T07:28:13.874Z,3.08
2023-04-14T07:33:18.839Z,4.13
2023-04-14T07:38:20.940Z,4.47
2023-04-14T07:43:23.957Z,4.03
2023-04-14T07:48:26.133Z,4.10
2023-04-14T07:53:28.420Z,4.63
2023-04-14T07:58:30.550Z,3.53
2023-04-14T08:03:33.028Z,3.78
2023-04-14T08:08:36.141Z,2.85
2023-04-14T08:13:38.273Z,3.55
2023-04-14T08:18:41.522Z,3.00
2023-04-14T08:23:43.838Z,2.97
2023-04-14T08:28:47.113Z,2.10
2023-04-14T08:33:49.239Z,2.90
2023-04-14T08:38:53.354Z,3.95
2023-04-14T08:43:55.754Z,3.10
2023-04-14T08:49:05.859Z,2.53
2023-04-14T08:54:10.435Z,2.53
2023-04-14T08:59:12.612Z,3.92
2023-04-14T09:04:15.424Z,3.53
2023-04-14T09:09:18.635Z,4.45
2023-04-14T09:14:21.772Z,3.78
2023-04-14T09:19:24.874Z,3.17
2023-04-14T09:24:34.165Z,5.43
2023-04-14T09:29:37.671Z,4.30
2023-04-14T09:34:56.537Z,6.10
2023-04-14T09:40:00.438Z,3.00
2023-04-14T09:45:05.194Z,4.30
2023-04-14T09:50:07.931Z,4.70
2023-04-14T09:55:14.347Z,3.67
2023-04-14T10:00:16.808Z,2.97
2023-04-14T10:05:31.076Z,6.25
2023-04-14T10:10:35.483Z,3.10
2023-04-14T10:15:37.843Z,4.15
2023-04-14T10:20:40.357Z,3.25
2023-04-14T10:25:42.867Z,4.57
2023-04-14T10:30:45.302Z,3.58
2023-04-14T10:35:53.710Z,3.22
2023-04-14T10:40:59.811Z,3.57
2023-04-14T10:46:02.723Z,5.15
2023-04-14T10:51:09.921Z,2.17
2023-04-14T10:56:12.872Z,2.53
2023-04-14T11:01:32.830Z,3.03
2023-04-14T11:11:49.267Z,2.47
2023-04-14T11:17:02.780Z,1.73
2023-04-14T11:22:06.926Z,2.13
2023-04-14T11:27:12.919Z,2.83
2023-04-14T11:32:15.140Z,2.47
2023-04-14T11:37:17.490Z,2.45
2023-04-14T11:42:19.741Z,1.95
2023-04-14T11:47:22.346Z,4.43
2023-04-14T11:52:24.998Z,3.13
2023-04-14T11:57:27.438Z,5.05
2023-04-14T12:02:30.473Z,1.88
2023-04-14T12:07:33.679Z,1.20
2023-04-14T12:12:40.350Z,2.15
2023-04-14T12:17:42.841Z,1.35
2023-04-14T12:22:45.824Z,2.38
2023-04-14T12:27:55.770Z,1.40
2023-04-14T12:32:59.242Z,1.00
2023-04-14T12:38:01.425Z,1.63
2023-04-14T12:43:03.936Z,1.38
2023-04-14T12:48:09.359Z,1.40
2023-04-14T12:53:29.383Z,1.50
2023-04-14T12:58:31.988Z,1.88
2023-04-14T13:03:41.419Z,2.20
2023-04-14T13:08:48.715Z,1.42
2023-04-14T13:13:54.536Z,1.50
2023-04-14T13:18:56.952Z,2.80
2023-04-14T13:23:59.133Z,2.05
2023-04-14T13:29:01.570Z,2.17
2023-04-14T13:34:04.398Z,2.25
2023-04-14T13:39:06.504Z,2.92
2023-04-14T13:44:09.149Z,3.83
2023-04-14T13:49:12.194Z,4.40
2023-04-14T13:54:14.463Z,2.00
2023-04-14T13:59:17.327Z,2.60
2023-04-14T14:04:19.656Z,3.95
2023-04-14T14:09:21.981Z,1.73
2023-04-14T14:14:25.817Z,4.32
2023-04-14T14:19:28.251Z,1.98
2023-04-14T14:24:30.494Z,3.72
2023-04-14T14:29:35.059Z,2.17
2023-04-14T14:34:38.987Z,2.72
2023-04-14T14:39:41.321Z,2.78
2023-04-14T14:44:43.456Z,2.97
2023-04-14T14:49:52.984Z,1.95
2023-04-14T14:55:03.576Z,2.75
2023-04-14T15:00:07.819Z,3.65
2023-04-14T15:05:10.029Z,3.22
2023-04-14T15:10:12.194Z,4.07
2023-04-14T15:15:19.062Z,2.72
2023-04-14T15:20:22.055Z,1.67
2023-04-14T15:25:24.334Z,2.53
2023-04-14T15:30:27.481Z,12.77
2023-04-14T15:35:29.675Z,2.25
2023-04-14T15:40:32.107Z,4.25
2023-04-14T15:45:34.354Z,2.67
2023-04-14T15:50:44.770Z,2.70
2023-04-14T15:55:50.193Z,2.60
2023-04-14T16:00:52.463Z,2.58
2023-04-14T16:06:06.812Z,1.88
2023-04-14T16:11:19.329Z,1.88
2023-04-14T16:16:21.947Z,4.55
2023-04-14T16:21:24.217Z,1.83
2023-04-14T16:26:26.353Z,2.70
2023-04-14T16:31:28.728Z,2.40
2023-04-14T16:36:31.058Z,1.83
2023-04-14T16:41:33.802Z,1.10
2023-04-14T16:46:36.006Z,1.77
2023-04-14T16:51:38.638Z,1.42
2023-04-14T16:56:41.011Z,1.35
2023-04-14T17:01:45.240Z,2.15
2023-04-14T17:06:48.083Z,1.13
2023-04-14T17:11:50.322Z,2.58
2023-04-14T17:16:52.798Z,1.50
2023-04-14T17:21:55.079Z,1.85
2023-04-14T17:26:57.499Z,1.42
2023-04-14T17:32:01.100Z,1.20
2023-04-14T17:37:04.974Z,1.27
2023-04-14T17:42:07.515Z,2.63
2023-04-14T17:47:15.718Z,2.25
2023-04-14T17:52:18.541Z,1.10
2023-04-14T17:57:23.001Z,1.60
2023-04-14T18:02:30.737Z,1.88
2023-04-14T18:07:33.307Z,1.35
2023-04-14T18:12:36.563Z,1.30
2023-04-14T18:17:38.755Z,1.20
2023-04-14T18:22:41.405Z,1.35
2023-04-14T18:32:51.425Z,1.60
2023-04-14T18:37:54.791Z,1.23
2023-04-14T18:43:02.127Z,1.38
2023-04-14T18:48:08.332Z,1.15
2023-04-14T18:53:11.583Z,1.73
2023-04-14T18:58:13.697Z,1.27
2023-04-14T19:03:17.056Z,1.75
2023-04-14T19:08:19.437Z,2.28
2023-04-14T19:13:22.289Z,1.73
2023-04-14T19:18:25.650Z,1.77
2023-04-14T19:23:28.298Z,1.05
2023-04-14T19:28:33.862Z,1.90
2023-04-14T19:33:36.089Z,1.52
2023-04-14T19:38:39.651Z,1.25
2023-04-14T19:43:42.053Z,2.00
2023-04-14T19:48:45.220Z,1.30
2023-04-14T19:53:48.204Z,2.20
2023-04-14T19:58:51.807Z,1.08
2023-04-14T20:04:05.601Z,1.50
2023-04-14T20:09:16.261Z,1.10
2023-04-14T20:14:18.715Z,1.50
2023-04-14T20:19:23.243Z,1.00
2023-04-14T20:24:25.766Z,0.82
2023-04-14T20:29:27.930Z,0.95
2023-04-14T20:34:30.133Z,1.65
2023-04-14T20:39:32.240Z,0.98
2023-04-14T20:44:34.327Z,2.55
2023-04-14T20:49:36.957Z,1.02
2023-04-14T20:54:39.414Z,0.70
2023-04-14T20:59:41.688Z,1.08
2023-04-14T21:04:43.760Z,1.00
2023-04-14T21:09:45.956Z,1.10
2023-04-14T21:15:42.438Z,2.03
2023-04-14T21:20:10.957Z,1.50
2023-04-14T21:25:13.154Z,0.95
2023-04-14T21:30:15.633Z,1.65
2023-04-14T21:35:17.822Z,0.80
2023-04-14T21:40:20.410Z,1.00
2023-04-14T21:45:22.808Z,1.55
2023-04-14T21:50:25.136Z,1.08
2023-04-14T21:55:27.542Z,1.08
2023-04-14T22:00:31.026Z,1.05
2023-04-14T22:05:33.457Z,0.80
2023-04-14T22:10:39.497Z,1.63
2023-04-14T22:15:46.791Z,0.95
2023-04-14T22:20:49.316Z,1.23
2023-04-14T22:25:51.629Z,0.68
2023-04-14T22:30:54.307Z,2.05
2023-04-14T22:36:05.625Z,1.50
2023-04-14T22:41:08.944Z,1.60
2023-04-14T22:46:31.123Z,1.10
2023-04-14T22:51:49.893Z,1.13
2023-04-14T22:56:52.297Z,2.42
2023-04-14T23:01:59.551Z,1.83
2023-04-14T23:07:02.173Z,2.30
2023-04-14T23:12:05.717Z,2.08
2023-04-14T23:17:07.798Z,1.23
2023-04-14T23:22:12.900Z,2.47
2023-04-14T23:27:19.404Z,1.77
2023-04-14T23:32:22.449Z,1.10
2023-04-14T23:37:29.063Z,1.52
2023-04-14T23:42:36.985Z,2.30
2023-04-14T23:47:42.321Z,1.00
2023-04-14T23:52:58.452Z,2.20
2023-04-14T23:58:04.662Z,1.42
